sensor_id;sensor_type;location;lat;lon;timestamp;pressure;altitude;pressure_sealevel;temperature;humidity
10688;BME280;5392;42.688;23.298;2023-04-06T00:00:50;57400.91;;;-144.48;100.00
10688;BME280;5392;42.688;23.298;2023-04-06T00:03:18;57438.47;;;-144.48;100.00
10688;BME280;5392;42.688;23.298;2023-04-06T00:05:46;57501.09;;;-144.48;100.00
10688;BME280;5392;42.688;23.298;2023-04-06T00:08:13;57507.34;;;-144.48;100.00
10688;BME280;5392;42.688;23.298;2023-04-06T00:10:40;57446.81;;;-144.48;100.00
10688;BME280;5392;42.688;23.298;2023-04-06T00:13:06;57411.34;;;-144.48;100.00
10688;BME280;5392;42.688;23.298;2023-04-06T00:15:34;57459.34;;;-144.48;100.00
10688;BME280;5392;42.688;23.298;2023-04-06T00:18:02;57503.19;;;-144.48;100.00
10688;BME280;5392;42.688;23.298;2023-04-06T00:20:28;57448.91;;;-144.48;100.00
10688;BME280;5392;42.688;23.298;2023-04-06T00:22:55;57473.97;;;-144.48;100.00
10688;BME280;5392;42.688;23.298;2023-04-06T00:25:22;57442.66;;;-144.48;100.00
10688;BME280;5392;42.688;23.298;2023-04-06T00:27:49;57432.22;;;-144.48;100.00
10688;BME280;5392;42.688;23.298;2023-04-06T00:30:15;57423.88;;;-144.48;100.00
10688;BME280;5392;42.688;23.298;2023-04-06T00:32:42;57453.09;;;-144.48;100.00
10688;BME280;5392;42.688;23.298;2023-04-06T00:35:09;57459.34;;;-144.48;100.00
10688;BME280;5392;42.688;23.298;2023-04-06T00:37:35;57453.09;;;-144.48;100.00
10688;BME280;5392;42.688;23.298;2023-04-06T00:40:02;57438.47;;;-144.48;100.00
10688;BME280;5392;42.688;23.298;2023-04-06T00:42:29;57463.53;;;-144.48;100.00
10688;BME280;5392;42.688;23.298;2023-04-06T00:44:58;57451.00;;;-144.48;100.00
10688;BME280;5392;42.688;23.298;2023-04-06T00:47:25;57455.16;;;-144.48;100.00
10688;BME280;5392;42.688;23.298;2023-04-06T00:49:53;57448.91;;;-144.48;100.00
10688;BME280;5392;42.688;23.298;2023-04-06T00:52:21;57478.13;;;-144.48;100.00
10688;BME280;5392;42.688;23.298;2023-04-06T00:54:48;57461.44;;;-144.48;100.00
10688;BME280;5392;42.688;23.298;2023-04-06T00:57:15;57432.22;;;-144.48;100.00
10688;BME280;5392;42.688;23.298;2023-04-06T00:59:42;57453.09;;;-144.48;100.00
10688;BME280;5392;42.688;23.298;2023-04-06T01:02:09;57411.34;;;-144.48;100.00
10688;BME280;5392;42.688;23.298;2023-04-06T01:04:35;57461.44;;;-144.48;100.00
10688;BME280;5392;42.688;23.298;2023-04-06T01:07:02;57451.00;;;-144.48;100.00
10688;BME280;5392;42.688;23.298;2023-04-06T01:09:29;57463.53;;;-144.48;100.00
10688;BME280;5392;42.688;23.298;2023-04-06T01:11:57;57480.22;;;-144.48;100.00
10688;BME280;5392;42.688;23.298;2023-04-06T01:14:24;57459.34;;;-144.48;100.00
10688;BME280;5392;42.688;23.298;2023-04-06T01:16:51;57415.50;;;-144.48;100.00
10688;BME280;5392;42.688;23.298;2023-04-06T01:19:18;57453.09;;;-144.48;100.00
10688;BME280;5392;42.688;23.298;2023-04-06T01:21:45;57415.50;;;-144.48;100.00
10688;BME280;5392;42.688;23.298;2023-04-06T01:24:11;57461.44;;;-144.48;100.00
10688;BME280;5392;42.688;23.298;2023-04-06T01:26:40;57411.34;;;-144.48;100.00
10688;BME280;5392;42.688;23.298;2023-04-06T01:29:06;57451.00;;;-144.48;100.00
10688;BME280;5392;42.688;23.298;2023-04-06T01:31:34;57448.91;;;-144.48;100.00
10688;BME280;5392;42.688;23.298;2023-04-06T01:34:01;57444.72;;;-144.48;100.00
10688;BME280;5392;42.688;23.298;2023-04-06T01:36:27;57484.41;;;-144.48;100.00
10688;BME280;5392;42.688;23.298;2023-04-06T01:38:54;57459.34;;;-144.48;100.00
10688;BME280;5392;42.688;23.298;2023-04-06T01:41:20;57457.25;;;-144.48;100.00
10688;BME280;5392;42.688;23.298;2023-04-06T01:43:48;57482.31;;;-144.48;100.00
10688;BME280;5392;42.688;23.298;2023-04-06T01:46:15;57465.59;;;-144.48;100.00
10688;BME280;5392;42.688;23.298;2023-04-06T01:48:42;57467.69;;;-144.48;100.00
10688;BME280;5392;42.688;23.298;2023-04-06T01:51:09;57432.22;;;-144.48;100.00
10688;BME280;5392;42.688;23.298;2023-04-06T01:53:36;57446.81;;;-144.48;100.00
10688;BME280;5392;42.688;23.298;2023-04-06T01:56:02;57463.53;;;-144.48;100.00
10688;BME280;5392;42.688;23.298;2023-04-06T01:58:29;57488.56;;;-144.48;100.00
10688;BME280;5392;42.688;23.298;2023-04-06T02:00:56;57419.69;;;-144.48;100.00
10688;BME280;5392;42.688;23.298;2023-04-06T02:03:23;57473.97;;;-144.48;100.00
10688;BME280;5392;42.688;23.298;2023-04-06T02:05:49;57469.78;;;-144.48;100.00
10688;BME280;5392;42.688;23.298;2023-04-06T02:08:16;57440.56;;;-144.48;100.00
10688;BME280;5392;42.688;23.298;2023-04-06T02:10:43;57455.16;;;-144.48;100.00
10688;BME280;5392;42.688;23.298;2023-04-06T02:13:09;57459.34;;;-144.48;100.00
10688;BME280;5392;42.688;23.298;2023-04-06T02:15:36;57471.88;;;-144.48;100.00
10688;BME280;5392;42.688;23.298;2023-04-06T02:18:02;57430.13;;;-144.48;100.00
10688;BME280;5392;42.688;23.298;2023-04-06T02:20:29;57471.88;;;-144.48;100.00
10688;BME280;5392;42.688;23.298;2023-04-06T02:22:58;57480.22;;;-144.48;100.00
10688;BME280;5392;42.688;23.298;2023-04-06T02:25:25;57425.94;;;-144.48;100.00
10688;BME280;5392;42.688;23.298;2023-04-06T02:27:52;57484.41;;;-144.48;100.00
10688;BME280;5392;42.688;23.298;2023-04-06T02:30:19;57465.59;;;-144.48;100.00
10688;BME280;5392;42.688;23.298;2023-04-06T02:32:46;57442.66;;;-144.48;100.00
10688;BME280;5392;42.688;23.298;2023-04-06T02:35:13;57455.16;;;-144.48;100.00
10688;BME280;5392;42.688;23.298;2023-04-06T02:37:39;57428.03;;;-144.48;100.00
10688;BME280;5392;42.688;23.298;2023-04-06T02:40:06;57425.94;;;-144.48;100.00
10688;BME280;5392;42.688;23.298;2023-04-06T02:42:33;57455.16;;;-144.48;100.00
10688;BME280;5392;42.688;23.298;2023-04-06T02:45:01;57478.13;;;-144.48;100.00
10688;BME280;5392;42.688;23.298;2023-04-06T02:47:28;57459.34;;;-144.48;99.64
10688;BME280;5392;42.688;23.298;2023-04-06T02:49:54;57446.81;;;-144.48;100.00
10688;BME280;5392;42.688;23.298;2023-04-06T02:52:21;57432.22;;;-144.48;100.00
10688;BME280;5392;42.688;23.298;2023-04-06T02:54:48;57492.75;;;-144.48;99.98
10688;BME280;5392;42.688;23.298;2023-04-06T02:57:14;57478.13;;;-144.48;100.00
10688;BME280;5392;42.688;23.298;2023-04-06T02:59:41;57430.13;;;-144.48;100.00
10688;BME280;5392;42.688;23.298;2023-04-06T03:02:08;57467.69;;;-144.48;100.00
10688;BME280;5392;42.688;23.298;2023-04-06T03:04:34;57463.53;;;-144.48;99.96
10688;BME280;5392;42.688;23.298;2023-04-06T03:07:01;57488.56;;;-144.48;99.48
10688;BME280;5392;42.688;23.298;2023-04-06T03:09:28;57467.69;;;-144.48;99.85
10688;BME280;5392;42.688;23.298;2023-04-06T03:11:55;57473.97;;;-144.48;100.00
10688;BME280;5392;42.688;23.298;2023-04-06T03:14:22;57455.16;;;-144.48;100.00
10688;BME280;5392;42.688;23.298;2023-04-06T03:16:48;57442.66;;;-144.48;100.00
10688;BME280;5392;42.688;23.298;2023-04-06T03:19:15;57463.53;;;-144.48;100.00
10688;BME280;5392;42.688;23.298;2023-04-06T03:21:42;57478.13;;;-144.48;100.00
10688;BME280;5392;42.688;23.298;2023-04-06T03:24:08;57438.47;;;-144.48;99.60
10688;BME280;5392;42.688;23.298;2023-04-06T03:26:35;57448.91;;;-144.48;99.33
10688;BME280;5392;42.688;23.298;2023-04-06T03:29:01;57438.47;;;-144.48;98.91
10688;BME280;5392;42.688;23.298;2023-04-06T03:31:28;57461.44;;;-144.48;98.88
10688;BME280;5392;42.688;23.298;2023-04-06T03:33:55;57428.03;;;-144.48;99.29
10688;BME280;5392;42.688;23.298;2023-04-06T03:36:22;57467.69;;;-144.48;99.21
10688;BME280;5392;42.688;23.298;2023-04-06T03:38:49;57448.91;;;-144.48;99.46
10688;BME280;5392;42.688;23.298;2023-04-06T03:41:16;57455.16;;;-144.48;99.31
10688;BME280;5392;42.688;23.298;2023-04-06T03:43:42;57419.69;;;-144.48;99.05
10688;BME280;5392;42.688;23.298;2023-04-06T03:46:09;57461.44;;;-144.48;99.04
10688;BME280;5392;42.688;23.298;2023-04-06T03:48:36;57482.31;;;-144.48;98.97
10688;BME280;5392;42.688;23.298;2023-04-06T03:51:03;57442.66;;;-144.48;98.21
10688;BME280;5392;42.688;23.298;2023-04-06T03:53:29;57446.81;;;-144.48;98.17
10688;BME280;5392;42.688;23.298;2023-04-06T03:55:56;57465.59;;;-144.48;98.88
10688;BME280;5392;42.688;23.298;2023-04-06T03:58:23;57505.25;;;-144.48;98.49
10688;BME280;5392;42.688;23.298;2023-04-06T04:00:49;57459.34;;;-144.48;98.35
10688;BME280;5392;42.688;23.298;2023-04-06T04:03:16;57455.16;;;-144.48;98.08
10688;BME280;5392;42.688;23.298;2023-04-06T04:05:43;57440.56;;;-144.48;97.87
10688;BME280;5392;42.688;23.298;2023-04-06T04:08:09;57486.47;;;-144.48;96.98
10688;BME280;5392;42.688;23.298;2023-04-06T04:10:36;57484.41;;;-144.48;96.97
10688;BME280;5392;42.688;23.298;2023-04-06T04:13:03;57476.03;;;-144.48;98.17
10688;BME280;5392;42.688;23.298;2023-04-06T04:15:29;57440.56;;;-144.48;98.37
10688;BME280;5392;42.688;23.298;2023-04-06T04:17:56;57476.03;;;-144.48;99.66
10688;BME280;5392;42.688;23.298;2023-04-06T04:20:23;57461.44;;;-144.48;100.00
10688;BME280;5392;42.688;23.298;2023-04-06T04:22:49;57467.69;;;-144.48;100.00
10688;BME280;5392;42.688;23.298;2023-04-06T04:25:16;57517.78;;;-144.48;100.00
10688;BME280;5392;42.688;23.298;2023-04-06T04:27:43;57480.22;;;-144.48;100.00
10688;BME280;5392;42.688;23.298;2023-04-06T04:30:09;57513.63;;;-144.48;100.00
10688;BME280;5392;42.688;23.298;2023-04-06T04:32:36;57463.53;;;-144.48;99.22
10688;BME280;5392;42.688;23.298;2023-04-06T04:35:03;57421.78;;;-144.48;98.57
10688;BME280;5392;42.688;23.298;2023-04-06T04:37:30;57469.78;;;-144.48;97.74
10688;BME280;5392;42.688;23.298;2023-04-06T04:39:57;57467.69;;;-144.48;98.24
10688;BME280;5392;42.688;23.298;2023-04-06T04:42:24;57461.44;;;-144.48;98.00
10688;BME280;5392;42.688;23.298;2023-04-06T04:44:50;57471.88;;;-144.48;98.21
10688;BME280;5392;42.688;23.298;2023-04-06T04:47:17;57446.81;;;-144.48;97.69
10688;BME280;5392;42.688;23.298;2023-04-06T04:49:43;57471.88;;;-144.48;97.14
10688;BME280;5392;42.688;23.298;2023-04-06T04:52:10;57446.81;;;-144.48;97.31
10688;BME280;5392;42.688;23.298;2023-04-06T04:54:37;57480.22;;;-144.48;97.21
10688;BME280;5392;42.688;23.298;2023-04-06T04:57:04;57430.13;;;-144.48;97.17
10688;BME280;5392;42.688;23.298;2023-04-06T04:59:30;57459.34;;;-144.48;95.88
10688;BME280;5392;42.688;23.298;2023-04-06T05:01:57;57444.72;;;-144.48;96.35
10688;BME280;5392;42.688;23.298;2023-04-06T05:04:24;57473.97;;;-144.48;96.84
10688;BME280;5392;42.688;23.298;2023-04-06T05:07:03;57482.31;;;-144.48;97.07
10688;BME280;5392;42.688;23.298;2023-04-06T05:09:29;57453.09;;;-144.48;96.54
10688;BME280;5392;42.688;23.298;2023-04-06T05:12:00;57425.94;;;-144.48;96.30
10688;BME280;5392;42.688;23.298;2023-04-06T05:14:28;57446.81;;;-144.48;95.95
10688;BME280;5392;42.688;23.298;2023-04-06T05:16:55;57461.44;;;-144.48;96.74
10688;BME280;5392;42.688;23.298;2023-04-06T05:19:22;57428.03;;;-144.48;96.38
10688;BME280;5392;42.688;23.298;2023-04-06T05:21:48;57499.00;;;-144.48;96.15
10688;BME280;5392;42.688;23.298;2023-04-06T05:24:15;57448.91;;;-144.48;95.60
10688;BME280;5392;42.688;23.298;2023-04-06T05:26:42;57459.34;;;-144.48;94.99
10688;BME280;5392;42.688;23.298;2023-04-06T05:29:10;57469.78;;;-144.48;96.81
10688;BME280;5392;42.688;23.298;2023-04-06T05:31:37;57484.41;;;-144.48;97.45
10688;BME280;5392;42.688;23.298;2023-04-06T05:34:03;57442.66;;;-144.48;97.18
10688;BME280;5392;42.688;23.298;2023-04-06T05:36:30;57463.53;;;-144.48;97.77
10688;BME280;5392;42.688;23.298;2023-04-06T05:38:58;57455.16;;;-144.48;97.02
10688;BME280;5392;42.688;23.298;2023-04-06T05:41:25;57451.00;;;-144.48;97.66
10688;BME280;5392;42.688;23.298;2023-04-06T05:43:52;57467.69;;;-144.48;97.04
10688;BME280;5392;42.688;23.298;2023-04-06T05:46:19;57451.00;;;-144.48;97.74
10688;BME280;5392;42.688;23.298;2023-04-06T05:48:46;57451.00;;;-144.48;98.63
10688;BME280;5392;42.688;23.298;2023-04-06T05:51:13;57423.88;;;-144.48;97.42
10688;BME280;5392;42.688;23.298;2023-04-06T05:53:39;57432.22;;;-144.48;98.02
10688;BME280;5392;42.688;23.298;2023-04-06T05:56:06;57494.81;;;-144.48;98.62
10688;BME280;5392;42.688;23.298;2023-04-06T05:58:33;57471.88;;;-144.48;96.73
10688;BME280;5392;42.688;23.298;2023-04-06T06:01:00;57484.41;;;-144.48;95.00
10688;BME280;5392;42.688;23.298;2023-04-06T06:03:28;57492.75;;;-144.48;94.60
10688;BME280;5392;42.688;23.298;2023-04-06T06:06:02;57448.91;;;-144.48;94.80
10688;BME280;5392;42.688;23.298;2023-04-06T06:08:31;57501.09;;;-144.48;95.56
10688;BME280;5392;42.688;23.298;2023-04-06T06:10:58;57451.00;;;-144.48;94.16
10688;BME280;5392;42.688;23.298;2023-04-06T06:13:24;57438.47;;;-144.48;95.19
10688;BME280;5392;42.688;23.298;2023-04-06T06:15:51;57453.09;;;-144.48;96.47
10688;BME280;5392;42.688;23.298;2023-04-06T06:18:18;57461.44;;;-144.48;95.09
10688;BME280;5392;42.688;23.298;2023-04-06T06:20:45;57451.00;;;-144.48;94.85
10688;BME280;5392;42.688;23.298;2023-04-06T06:23:12;57482.31;;;-144.48;93.58
10688;BME280;5392;42.688;23.298;2023-04-06T06:25:39;57428.03;;;-144.48;91.54
10688;BME280;5392;42.688;23.298;2023-04-06T06:28:05;57436.38;;;-144.48;88.33
10688;BME280;5392;42.688;23.298;2023-04-06T06:30:32;57446.81;;;-144.48;86.36
10688;BME280;5392;42.688;23.298;2023-04-06T06:32:59;57438.47;;;-144.48;83.94
10688;BME280;5392;42.688;23.298;2023-04-06T06:35:26;57486.47;;;-144.48;81.34
10688;BME280;5392;42.688;23.298;2023-04-06T06:37:52;57457.25;;;-144.48;82.11
10688;BME280;5392;42.688;23.298;2023-04-06T06:40:19;57471.88;;;-144.48;82.85
10688;BME280;5392;42.688;23.298;2023-04-06T06:42:48;57480.22;;;-144.48;86.23
10688;BME280;5392;42.688;23.298;2023-04-06T06:45:14;57473.97;;;-144.48;84.76
10688;BME280;5392;42.688;23.298;2023-04-06T06:47:41;57428.03;;;-144.48;85.31
10688;BME280;5392;42.688;23.298;2023-04-06T06:50:08;57455.16;;;-144.48;84.73
10688;BME280;5392;42.688;23.298;2023-04-06T06:52:35;57482.31;;;-144.48;84.88
10688;BME280;5392;42.688;23.298;2023-04-06T06:55:02;57494.81;;;-144.48;81.22
10688;BME280;5392;42.688;23.298;2023-04-06T06:57:29;57524.06;;;-144.48;81.88
10688;BME280;5392;42.688;23.298;2023-04-06T06:59:56;57463.53;;;-144.48;81.48
10688;BME280;5392;42.688;23.298;2023-04-06T07:02:22;57444.72;;;-144.48;83.19
10688;BME280;5392;42.688;23.298;2023-04-06T07:04:49;57451.00;;;-144.48;79.93
10688;BME280;5392;42.688;23.298;2023-04-06T07:07:16;57446.81;;;-144.48;81.14
10688;BME280;5392;42.688;23.298;2023-04-06T07:09:43;57471.88;;;-144.48;81.39
10688;BME280;5392;42.688;23.298;2023-04-06T07:12:09;57480.22;;;-144.48;78.29
10688;BME280;5392;42.688;23.298;2023-04-06T07:14:36;57467.69;;;-144.48;81.06
10688;BME280;5392;42.688;23.298;2023-04-06T07:17:03;57465.59;;;-144.48;79.26
10688;BME280;5392;42.688;23.298;2023-04-06T07:19:30;57505.25;;;-144.48;79.68
10688;BME280;5392;42.688;23.298;2023-04-06T07:21:57;57471.88;;;-144.48;82.35
10688;BME280;5392;42.688;23.298;2023-04-06T07:24:24;57459.34;;;-144.48;81.31
10688;BME280;5392;42.688;23.298;2023-04-06T07:26:50;57480.22;;;-144.48;81.60
10688;BME280;5392;42.688;23.298;2023-04-06T07:29:17;57463.53;;;-144.48;79.12
10688;BME280;5392;42.688;23.298;2023-04-06T07:31:44;57421.78;;;-144.48;74.90
10688;BME280;5392;42.688;23.298;2023-04-06T07:34:11;57438.47;;;-144.48;74.18
10688;BME280;5392;42.688;23.298;2023-04-06T07:36:38;57469.78;;;-144.48;75.76
10688;BME280;5392;42.688;23.298;2023-04-06T07:39:04;57463.53;;;-144.48;76.67
10688;BME280;5392;42.688;23.298;2023-04-06T07:41:31;57469.78;;;-144.48;75.72
10688;BME280;5392;42.688;23.298;2023-04-06T07:43:58;57473.97;;;-144.48;74.06
10688;BME280;5392;42.688;23.298;2023-04-06T07:46:24;57446.81;;;-144.48;69.51
10688;BME280;5392;42.688;23.298;2023-04-06T07:48:51;57421.78;;;-144.48;64.88
10688;BME280;5392;42.688;23.298;2023-04-06T07:51:18;57436.38;;;-144.48;62.90
10688;BME280;5392;42.688;23.298;2023-04-06T07:53:45;57465.59;;;-144.48;59.20
10688;BME280;5392;42.688;23.298;2023-04-06T07:56:11;57473.97;;;-144.48;58.77
10688;BME280;5392;42.688;23.298;2023-04-06T07:58:38;57473.97;;;-144.48;57.26
10688;BME280;5392;42.688;23.298;2023-04-06T08:01:05;57467.69;;;-144.48;58.22
10688;BME280;5392;42.688;23.298;2023-04-06T08:03:34;57415.50;;;-144.48;58.88
10688;BME280;5392;42.688;23.298;2023-04-06T08:06:01;57451.00;;;-144.48;59.04
10688;BME280;5392;42.688;23.298;2023-04-06T08:08:29;57436.38;;;-144.48;59.23
10688;BME280;5392;42.688;23.298;2023-04-06T08:10:55;57459.34;;;-144.48;59.56
10688;BME280;5392;42.688;23.298;2023-04-06T08:13:24;57425.94;;;-144.48;59.51
10688;BME280;5392;42.688;23.298;2023-04-06T08:15:51;57440.56;;;-144.48;59.67
10688;BME280;5392;42.688;23.298;2023-04-06T08:18:18;57490.66;;;-144.48;62.15
10688;BME280;5392;42.688;23.298;2023-04-06T08:20:44;57476.03;;;-144.48;64.88
10688;BME280;5392;42.688;23.298;2023-04-06T08:23:11;57455.16;;;-144.48;64.63
10688;BME280;5392;42.688;23.298;2023-04-06T08:25:38;57471.88;;;-144.48;64.45
10688;BME280;5392;42.688;23.298;2023-04-06T08:28:04;57448.91;;;-144.48;63.08
10688;BME280;5392;42.688;23.298;2023-04-06T08:30:31;57446.81;;;-144.48;61.68
10688;BME280;5392;42.688;23.298;2023-04-06T08:32:58;57446.81;;;-144.48;63.21
10688;BME280;5392;42.688;23.298;2023-04-06T08:35:26;57505.25;;;-144.48;63.33
10688;BME280;5392;42.688;23.298;2023-04-06T08:37:53;57430.13;;;-144.48;62.23
10688;BME280;5392;42.688;23.298;2023-04-06T08:40:20;57480.22;;;-144.48;64.45
10688;BME280;5392;42.688;23.298;2023-04-06T08:42:52;57448.91;;;-144.48;64.54
10688;BME280;5392;42.688;23.298;2023-04-06T08:45:18;57451.00;;;-144.48;64.13
10688;BME280;5392;42.688;23.298;2023-04-06T08:47:51;57503.19;;;-144.48;63.04
10688;BME280;5392;42.688;23.298;2023-04-06T08:50:19;57486.47;;;-144.48;62.79
10688;BME280;5392;42.688;23.298;2023-04-06T08:52:47;57446.81;;;-144.48;63.91
10688;BME280;5392;42.688;23.298;2023-04-06T08:55:15;57448.91;;;-144.48;62.56
10688;BME280;5392;42.688;23.298;2023-04-06T08:57:42;57488.56;;;-144.48;63.35
10688;BME280;5392;42.688;23.298;2023-04-06T09:00:11;57423.88;;;-144.48;63.15
10688;BME280;5392;42.688;23.298;2023-04-06T09:02:39;57482.31;;;-144.48;63.04
10688;BME280;5392;42.688;23.298;2023-04-06T09:05:08;57488.56;;;-144.48;64.65
10688;BME280;5392;42.688;23.298;2023-04-06T09:07:36;57471.88;;;-144.48;63.97
10688;BME280;5392;42.688;23.298;2023-04-06T09:10:04;57413.44;;;-144.48;63.48
10688;BME280;5392;42.688;23.298;2023-04-06T09:12:32;57496.91;;;-144.48;64.05
10688;BME280;5392;42.688;23.298;2023-04-06T09:14:59;57455.16;;;-144.48;64.43
10688;BME280;5392;42.688;23.298;2023-04-06T09:17:31;57455.16;;;-144.48;63.92
10688;BME280;5392;42.688;23.298;2023-04-06T09:20:01;57453.09;;;-144.48;63.59
10688;BME280;5392;42.688;23.298;2023-04-06T09:22:41;57453.09;;;-144.48;64.71
10688;BME280;5392;42.688;23.298;2023-04-06T09:25:18;57459.34;;;-144.48;64.96
10688;BME280;5392;42.688;23.298;2023-04-06T09:27:46;57463.53;;;-144.48;65.42
10688;BME280;5392;42.688;23.298;2023-04-06T09:30:13;57465.59;;;-144.48;65.55
10688;BME280;5392;42.688;23.298;2023-04-06T09:32:51;57494.81;;;-144.48;65.81
10688;BME280;5392;42.688;23.298;2023-04-06T09:35:19;57463.53;;;-144.48;63.54
10688;BME280;5392;42.688;23.298;2023-04-06T09:37:50;57432.22;;;-144.48;65.69
10688;BME280;5392;42.688;23.298;2023-04-06T09:40:19;57440.56;;;-144.48;65.39
10688;BME280;5392;42.688;23.298;2023-04-06T09:42:47;57465.59;;;-144.48;65.08
10688;BME280;5392;42.688;23.298;2023-04-06T09:45:14;57486.47;;;-144.48;64.03
10688;BME280;5392;42.688;23.298;2023-04-06T09:47:45;57486.47;;;-144.48;63.58
10688;BME280;5392;42.688;23.298;2023-04-06T09:50:14;57461.44;;;-144.48;62.41
10688;BME280;5392;42.688;23.298;2023-04-06T09:52:47;57488.56;;;-144.48;62.90
10688;BME280;5392;42.688;23.298;2023-04-06T09:55:30;57457.25;;;-144.48;62.69
10688;BME280;5392;42.688;23.298;2023-04-06T09:57:58;57480.22;;;-144.48;62.68
10688;BME280;5392;42.688;23.298;2023-04-06T10:00:31;57440.56;;;-144.48;63.94
10688;BME280;5392;42.688;23.298;2023-04-06T10:05:59;57484.41;;;-144.48;63.51
10688;BME280;5392;42.688;23.298;2023-04-06T10:08:28;57484.41;;;-144.48;62.01
10688;BME280;5392;42.688;23.298;2023-04-06T10:10:58;57467.69;;;-144.48;61.75
10688;BME280;5392;42.688;23.298;2023-04-06T10:13:27;57442.66;;;-144.48;62.46
10688;BME280;5392;42.688;23.298;2023-04-06T10:15:54;57440.56;;;-144.48;63.31
10688;BME280;5392;42.688;23.298;2023-04-06T10:18:21;57480.22;;;-144.48;62.39
10688;BME280;5392;42.688;23.298;2023-04-06T10:20:51;57459.34;;;-144.48;62.69
10688;BME280;5392;42.688;23.298;2023-04-06T10:23:26;57448.91;;;-144.48;61.68
10688;BME280;5392;42.688;23.298;2023-04-06T10:25:57;57444.72;;;-144.48;61.76
10688;BME280;5392;42.688;23.298;2023-04-06T10:28:25;57411.34;;;-144.48;63.18
10688;BME280;5392;42.688;23.298;2023-04-06T10:31:00;57469.78;;;-144.48;63.76
10688;BME280;5392;42.688;23.298;2023-04-06T10:33:28;57461.44;;;-144.48;63.58
10688;BME280;5392;42.688;23.298;2023-04-06T10:35:54;57423.88;;;-144.48;63.55
10688;BME280;5392;42.688;23.298;2023-04-06T10:38:36;57451.00;;;-144.48;63.41
10688;BME280;5392;42.688;23.298;2023-04-06T10:41:11;57515.69;;;-144.48;62.95
10688;BME280;5392;42.688;23.298;2023-04-06T10:43:40;57465.59;;;-144.48;63.32
10688;BME280;5392;42.688;23.298;2023-04-06T10:46:09;57486.47;;;-144.48;63.86
10688;BME280;5392;42.688;23.298;2023-04-06T10:48:43;57473.97;;;-144.48;62.75
10688;BME280;5392;42.688;23.298;2023-04-06T10:51:13;57480.22;;;-144.48;63.61
10688;BME280;5392;42.688;23.298;2023-04-06T10:53:42;57471.88;;;-144.48;64.61
10688;BME280;5392;42.688;23.298;2023-04-06T10:56:10;57465.59;;;-144.48;64.01
10688;BME280;5392;42.688;23.298;2023-04-06T10:58:44;57486.47;;;-144.48;64.53
10688;BME280;5392;42.688;23.298;2023-04-06T11:01:11;57501.09;;;-144.48;66.16
10688;BME280;5392;42.688;23.298;2023-04-06T11:03:45;57467.69;;;-144.48;66.66
10688;BME280;5392;42.688;23.298;2023-04-06T11:06:26;57436.38;;;-144.48;65.53
10688;BME280;5392;42.688;23.298;2023-04-06T11:08:54;57471.88;;;-144.48;64.64
10688;BME280;5392;42.688;23.298;2023-04-06T11:11:23;57496.91;;;-144.48;64.24
10688;BME280;5392;42.688;23.298;2023-04-06T11:13:53;57467.69;;;-144.48;64.64
10688;BME280;5392;42.688;23.298;2023-04-06T11:16:22;57480.22;;;-144.48;64.85
10688;BME280;5392;42.688;23.298;2023-04-06T11:18:56;57467.69;;;-144.48;64.32
10688;BME280;5392;42.688;23.298;2023-04-06T11:26:46;57451.00;;;-144.48;63.31
10688;BME280;5392;42.688;23.298;2023-04-06T11:29:16;57461.44;;;-144.48;63.28
10688;BME280;5392;42.688;23.298;2023-04-06T11:32:20;57451.00;;;-144.48;62.64
10688;BME280;5392;42.688;23.298;2023-04-06T11:34:47;57440.56;;;-144.48;64.60
10688;BME280;5392;42.688;23.298;2023-04-06T11:37:14;57461.44;;;-144.48;64.99
10688;BME280;5392;42.688;23.298;2023-04-06T11:39:49;57463.53;;;-144.48;64.04
10688;BME280;5392;42.688;23.298;2023-04-06T11:42:27;57428.03;;;-144.48;63.75
10688;BME280;5392;42.688;23.298;2023-04-06T11:44:58;57432.22;;;-144.48;63.68
10688;BME280;5392;42.688;23.298;2023-04-06T11:47:32;57473.97;;;-144.48;63.46
10688;BME280;5392;42.688;23.298;2023-04-06T11:50:14;57467.69;;;-144.48;62.27
10688;BME280;5392;42.688;23.298;2023-04-06T11:52:42;57471.88;;;-144.48;63.08
10688;BME280;5392;42.688;23.298;2023-04-06T11:55:16;57480.22;;;-144.48;62.66
10688;BME280;5392;42.688;23.298;2023-04-06T11:57:44;57480.22;;;-144.48;62.72
10688;BME280;5392;42.688;23.298;2023-04-06T12:00:12;57465.59;;;-144.48;62.90
10688;BME280;5392;42.688;23.298;2023-04-06T12:02:39;57496.91;;;-144.48;63.63
10688;BME280;5392;42.688;23.298;2023-04-06T12:05:06;57471.88;;;-144.48;64.65
10688;BME280;5392;42.688;23.298;2023-04-06T12:07:34;57496.91;;;-144.48;65.62
10688;BME280;5392;42.688;23.298;2023-04-06T12:10:02;57473.97;;;-144.48;65.03
10688;BME280;5392;42.688;23.298;2023-04-06T12:12:29;57476.03;;;-144.48;66.11
10688;BME280;5392;42.688;23.298;2023-04-06T12:14:56;57446.81;;;-144.48;65.61
10688;BME280;5392;42.688;23.298;2023-04-06T12:17:23;57478.13;;;-144.48;65.08
10688;BME280;5392;42.688;23.298;2023-04-06T12:19:50;57467.69;;;-144.48;64.03
10688;BME280;5392;42.688;23.298;2023-04-06T12:22:17;57455.16;;;-144.48;63.18
10688;BME280;5392;42.688;23.298;2023-04-06T12:24:44;57505.25;;;-144.48;63.71
10688;BME280;5392;42.688;23.298;2023-04-06T12:27:11;57455.16;;;-144.48;62.74
10688;BME280;5392;42.688;23.298;2023-04-06T12:29:38;57509.44;;;-144.48;62.38
10688;BME280;5392;42.688;23.298;2023-04-06T12:32:05;57488.56;;;-144.48;61.73
10688;BME280;5392;42.688;23.298;2023-04-06T12:34:32;57438.47;;;-144.48;63.15
10688;BME280;5392;42.688;23.298;2023-04-06T12:36:59;57446.81;;;-144.48;63.79
10688;BME280;5392;42.688;23.298;2023-04-06T12:39:27;57496.91;;;-144.48;63.78
10688;BME280;5392;42.688;23.298;2023-04-06T12:41:54;57463.53;;;-144.48;64.66
10688;BME280;5392;42.688;23.298;2023-04-06T12:44:22;57463.53;;;-144.48;65.40
10688;BME280;5392;42.688;23.298;2023-04-06T12:46:52;57482.31;;;-144.48;65.03
10688;BME280;5392;42.688;23.298;2023-04-06T12:49:18;57457.25;;;-144.48;64.07